sensor_id;sensor_type;location;lat;lon;timestamp;P1;durP1;ratioP1;P2;durP2;ratioP2
57055;SDS011;42945;51.718;5.324;2023-01-28T00:02:15;11.80;;;6.07;;
57055;SDS011;42945;51.718;5.324;2023-01-28T00:04:40;10.02;;;6.32;;
57055;SDS011;42945;51.718;5.324;2023-01-28T00:07:07;10.63;;;5.85;;
57055;SDS011;42945;51.718;5.324;2023-01-28T00:09:32;10.20;;;6.22;;
57055;SDS011;42945;51.718;5.324;2023-01-28T00:11:57;10.65;;;6.00;;
57055;SDS011;42945;51.718;5.324;2023-01-28T00:14:23;11.85;;;6.35;;
57055;SDS011;42945;51.718;5.324;2023-01-28T00:16:48;9.40;;;6.00;;
57055;SDS011;42945;51.718;5.324;2023-01-28T00:19:13;11.15;;;6.30;;
57055;SDS011;42945;51.718;5.324;2023-01-28T00:21:39;10.95;;;6.63;;
57055;SDS011;42945;51.718;5.324;2023-01-28T00:24:04;11.48;;;6.47;;
57055;SDS011;42945;51.718;5.324;2023-01-28T00:26:31;11.55;;;6.90;;
57055;SDS011;42945;51.718;5.324;2023-01-28T00:28:56;12.80;;;7.25;;
57055;SDS011;42945;51.718;5.324;2023-01-28T00:31:23;10.52;;;6.18;;
57055;SDS011;42945;51.718;5.324;2023-01-28T00:33:50;11.68;;;7.15;;
57055;SDS011;42945;51.718;5.324;2023-01-28T00:36:16;11.95;;;7.15;;
57055;SDS011;42945;51.718;5.324;2023-01-28T00:38:47;12.93;;;6.88;;
57055;SDS011;42945;51.718;5.324;2023-01-28T00:41:14;11.38;;;6.75;;
57055;SDS011;42945;51.718;5.324;2023-01-28T00:43:43;13.48;;;7.47;;
57055;SDS011;42945;51.718;5.324;2023-01-28T00:46:09;12.30;;;7.32;;
57055;SDS011;42945;51.718;5.324;2023-01-28T00:48:36;12.32;;;7.13;;
57055;SDS011;42945;51.718;5.324;2023-01-28T00:51:02;12.75;;;7.72;;
57055;SDS011;42945;51.718;5.324;2023-01-28T00:53:28;13.38;;;7.28;;
57055;SDS011;42945;51.718;5.324;2023-01-28T00:55:54;12.43;;;7.55;;
57055;SDS011;42945;51.718;5.324;2023-01-28T00:58:20;11.77;;;6.95;;
57055;SDS011;42945;51.718;5.324;2023-01-28T01:00:45;12.20;;;6.90;;
57055;SDS011;42945;51.718;5.324;2023-01-28T01:03:10;10.98;;;6.40;;
57055;SDS011;42945;51.718;5.324;2023-01-28T01:05:36;10.85;;;6.32;;
57055;SDS011;42945;51.718;5.324;2023-01-28T01:08:01;11.80;;;6.45;;
57055;SDS011;42945;51.718;5.324;2023-01-28T01:10:27;12.52;;;6.50;;
57055;SDS011;42945;51.718;5.324;2023-01-28T01:12:52;11.65;;;6.55;;
57055;SDS011;42945;51.718;5.324;2023-01-28T01:15:18;10.98;;;6.20;;
57055;SDS011;42945;51.718;5.324;2023-01-28T01:17:44;10.43;;;6.72;;
57055;SDS011;42945;51.718;5.324;2023-01-28T01:20:13;11.30;;;6.65;;
57055;SDS011;42945;51.718;5.324;2023-01-28T01:22:41;12.82;;;6.95;;
57055;SDS011;42945;51.718;5.324;2023-01-28T01:25:07;10.20;;;6.43;;
57055;SDS011;42945;51.718;5.324;2023-01-28T01:27:33;12.23;;;6.70;;
57055;SDS011;42945;51.718;5.324;2023-01-28T01:29:58;10.90;;;6.90;;
57055;SDS011;42945;51.718;5.324;2023-01-28T01:32:24;10.63;;;6.55;;
57055;SDS011;42945;51.718;5.324;2023-01-28T01:34:53;10.20;;;7.00;;
57055;SDS011;42945;51.718;5.324;2023-01-28T01:37:18;11.05;;;6.60;;
57055;SDS011;42945;51.718;5.324;2023-01-28T01:39:43;12.40;;;7.13;;
57055;SDS011;42945;51.718;5.324;2023-01-28T01:42:09;10.93;;;7.00;;
57055;SDS011;42945;51.718;5.324;2023-01-28T01:47:35;10.85;;;6.65;;
57055;SDS011;42945;51.718;5.324;2023-01-28T01:50:15;13.20;;;6.78;;
57055;SDS011;42945;51.718;5.324;2023-01-28T01:55:11;12.98;;;7.45;;
57055;SDS011;42945;51.718;5.324;2023-01-28T01:57:40;12.40;;;6.65;;
57055;SDS011;42945;51.718;5.324;2023-01-28T02:00:07;13.07;;;7.30;;
57055;SDS011;42945;51.718;5.324;2023-01-28T02:02:35;12.75;;;6.60;;
57055;SDS011;42945;51.718;5.324;2023-01-28T02:05:03;12.35;;;7.22;;
57055;SDS011;42945;51.718;5.324;2023-01-28T02:07:30;13.10;;;7.18;;
57055;SDS011;42945;51.718;5.324;2023-01-28T02:09:56;12.60;;;7.15;;
57055;SDS011;42945;51.718;5.324;2023-01-28T02:12:23;12.02;;;7.30;;
57055;SDS011;42945;51.718;5.324;2023-01-28T02:15:05;12.23;;;6.85;;
57055;SDS011;42945;51.718;5.324;2023-01-28T02:17:33;13.88;;;7.10;;
57055;SDS011;42945;51.718;5.324;2023-01-28T02:20:02;13.18;;;7.32;;
57055;SDS011;42945;51.718;5.324;2023-01-28T02:31:05;12.88;;;7.47;;
57055;SDS011;42945;51.718;5.324;2023-01-28T02:39:22;14.70;;;8.05;;
57055;SDS011;42945;51.718;5.324;2023-01-28T02:41:52;14.65;;;6.97;;
57055;SDS011;42945;51.718;5.324;2023-01-28T02:44:23;14.23;;;7.57;;
57055;SDS011;42945;51.718;5.324;2023-01-28T02:46:50;13.55;;;7.07;;
57055;SDS011;42945;51.718;5.324;2023-01-28T02:49:37;16.88;;;8.10;;
57055;SDS011;42945;51.718;5.324;2023-01-28T02:55:17;12.65;;;6.57;;
57055;SDS011;42945;51.718;5.324;2023-01-28T03:04:09;14.45;;;7.30;;
57055;SDS011;42945;51.718;5.324;2023-01-28T03:06:39;13.80;;;7.53;;
57055;SDS011;42945;51.718;5.324;2023-01-28T03:09:08;14.70;;;7.57;;
57055;SDS011;42945;51.718;5.324;2023-01-28T03:12:04;13.63;;;6.80;;
57055;SDS011;42945;51.718;5.324;2023-01-28T03:14:56;15.07;;;7.65;;
57055;SDS011;42945;51.718;5.324;2023-01-28T03:20:42;15.70;;;7.65;;
57055;SDS011;42945;51.718;5.324;2023-01-28T03:23:37;15.32;;;7.60;;
57055;SDS011;42945;51.718;5.324;2023-01-28T03:26:46;15.70;;;7.35;;
57055;SDS011;42945;51.718;5.324;2023-01-28T03:29:36;16.92;;;7.68;;
57055;SDS011;42945;51.718;5.324;2023-01-28T03:32:24;13.82;;;7.35;;
57055;SDS011;42945;51.718;5.324;2023-01-28T03:35:09;14.50;;;7.18;;
57055;SDS011;42945;51.718;5.324;2023-01-28T03:37:58;15.13;;;7.85;;
57055;SDS011;42945;51.718;5.324;2023-01-28T03:40:24;15.95;;;8.50;;
57055;SDS011;42945;51.718;5.324;2023-01-28T03:42:51;15.18;;;7.53;;
57055;SDS011;42945;51.718;5.324;2023-01-28T03:45:18;16.08;;;7.88;;
57055;SDS011;42945;51.718;5.324;2023-01-28T03:47:45;15.50;;;8.35;;
57055;SDS011;42945;51.718;5.324;2023-01-28T03:50:10;14.25;;;7.43;;
57055;SDS011;42945;51.718;5.324;2023-01-28T03:52:36;14.90;;;7.30;;
57055;SDS011;42945;51.718;5.324;2023-01-28T03:55:01;15.15;;;7.78;;
57055;SDS011;42945;51.718;5.324;2023-01-28T03:57:37;15.20;;;7.68;;
57055;SDS011;42945;51.718;5.324;2023-01-28T04:00:03;17.25;;;8.13;;
57055;SDS011;42945;51.718;5.324;2023-01-28T04:02:30;14.88;;;7.75;;
57055;SDS011;42945;51.718;5.324;2023-01-28T04:04:55;14.35;;;7.30;;
57055;SDS011;42945;51.718;5.324;2023-01-28T04:07:23;14.32;;;7.47;;
57055;SDS011;42945;51.718;5.324;2023-01-28T04:09:48;13.70;;;6.85;;
57055;SDS011;42945;51.718;5.324;2023-01-28T04:12:13;14.07;;;7.50;;
57055;SDS011;42945;51.718;5.324;2023-01-28T04:14:39;14.25;;;7.50;;
57055;SDS011;42945;51.718;5.324;2023-01-28T04:17:04;13.07;;;6.80;;
57055;SDS011;42945;51.718;5.324;2023-01-28T04:19:31;14.25;;;7.20;;
57055;SDS011;42945;51.718;5.324;2023-01-28T04:22:01;14.32;;;7.32;;
57055;SDS011;42945;51.718;5.324;2023-01-28T04:24:28;15.25;;;7.63;;
57055;SDS011;42945;51.718;5.324;2023-01-28T04:26:53;14.55;;;7.70;;
57055;SDS011;42945;51.718;5.324;2023-01-28T04:29:18;13.60;;;6.68;;
57055;SDS011;42945;51.718;5.324;2023-01-28T04:31:44;15.52;;;7.40;;
57055;SDS011;42945;51.718;5.324;2023-01-28T04:34:09;13.88;;;6.93;;
57055;SDS011;42945;51.718;5.324;2023-01-28T04:36:34;13.55;;;7.32;;
57055;SDS011;42945;51.718;5.324;2023-01-28T04:39:00;14.95;;;7.85;;
57055;SDS011;42945;51.718;5.324;2023-01-28T04:41:25;14.40;;;7.47;;
57055;SDS011;42945;51.718;5.324;2023-01-28T04:43:50;13.93;;;7.07;;
57055;SDS011;42945;51.718;5.324;2023-01-28T04:46:16;13.00;;;6.50;;
57055;SDS011;42945;51.718;5.324;2023-01-28T04:48:41;16.15;;;7.13;;
57055;SDS011;42945;51.718;5.324;2023-01-28T04:51:07;13.80;;;6.82;;
57055;SDS011;42945;51.718;5.324;2023-01-28T04:53:32;11.15;;;6.18;;
57055;SDS011;42945;51.718;5.324;2023-01-28T04:55:58;13.23;;;6.93;;
57055;SDS011;42945;51.718;5.324;2023-01-28T04:58:24;13.32;;;7.35;;
57055;SDS011;42945;51.718;5.324;2023-01-28T05:00:53;12.85;;;6.82;;
57055;SDS011;42945;51.718;5.324;2023-01-28T05:03:20;11.32;;;6.20;;
57055;SDS011;42945;51.718;5.324;2023-01-28T05:05:45;15.80;;;7.22;;
57055;SDS011;42945;51.718;5.324;2023-01-28T05:08:10;12.25;;;6.32;;
57055;SDS011;42945;51.718;5.324;2023-01-28T05:10:35;14.05;;;7.28;;
57055;SDS011;42945;51.718;5.324;2023-01-28T05:13:01;14.85;;;7.05;;
57055;SDS011;42945;51.718;5.324;2023-01-28T05:15:26;13.43;;;6.70;;
57055;SDS011;42945;51.718;5.324;2023-01-28T05:17:53;14.82;;;7.85;;
57055;SDS011;42945;51.718;5.324;2023-01-28T05:20:20;13.40;;;6.03;;
57055;SDS011;42945;51.718;5.324;2023-01-28T05:22:45;13.18;;;6.57;;
57055;SDS011;42945;51.718;5.324;2023-01-28T05:25:12;13.52;;;6.95;;
57055;SDS011;42945;51.718;5.324;2023-01-28T05:27:37;15.13;;;7.53;;
57055;SDS011;42945;51.718;5.324;2023-01-28T05:30:03;14.40;;;7.70;;
57055;SDS011;42945;51.718;5.324;2023-01-28T05:32:30;14.93;;;7.68;;
57055;SDS011;42945;51.718;5.324;2023-01-28T05:34:55;16.17;;;8.15;;
57055;SDS011;42945;51.718;5.324;2023-01-28T05:37:21;16.35;;;7.82;;
57055;SDS011;42945;51.718;5.324;2023-01-28T05:39:46;15.55;;;7.65;;
57055;SDS011;42945;51.718;5.324;2023-01-28T05:42:11;14.02;;;7.10;;
57055;SDS011;42945;51.718;5.324;2023-01-28T05:44:37;14.68;;;7.88;;
57055;SDS011;42945;51.718;5.324;2023-01-28T05:47:02;14.05;;;7.03;;
57055;SDS011;42945;51.718;5.324;2023-01-28T05:49:27;15.05;;;7.70;;
57055;SDS011;42945;51.718;5.324;2023-01-28T05:51:53;15.57;;;7.53;;
57055;SDS011;42945;51.718;5.324;2023-01-28T05:54:20;15.18;;;7.55;;
57055;SDS011;42945;51.718;5.324;2023-01-28T05:56:45;14.30;;;7.43;;
57055;SDS011;42945;51.718;5.324;2023-01-28T05:59:11;15.35;;;7.47;;
57055;SDS011;42945;51.718;5.324;2023-01-28T06:01:37;15.23;;;7.97;;
57055;SDS011;42945;51.718;5.324;2023-01-28T06:04:02;14.10;;;7.63;;
57055;SDS011;42945;51.718;5.324;2023-01-28T06:06:28;15.50;;;7.72;;
57055;SDS011;42945;51.718;5.324;2023-01-28T06:08:54;15.90;;;7.93;;
57055;SDS011;42945;51.718;5.324;2023-01-28T06:11:20;15.20;;;7.82;;
57055;SDS011;42945;51.718;5.324;2023-01-28T06:13:45;15.07;;;7.50;;
57055;SDS011;42945;51.718;5.324;2023-01-28T06:16:10;14.57;;;7.22;;
57055;SDS011;42945;51.718;5.324;2023-01-28T06:18:36;17.52;;;8.23;;
57055;SDS011;42945;51.718;5.324;2023-01-28T06:21:01;17.05;;;7.88;;
57055;SDS011;42945;51.718;5.324;2023-01-28T06:23:26;15.20;;;7.80;;
57055;SDS011;42945;51.718;5.324;2023-01-28T06:25:52;16.42;;;8.32;;
57055;SDS011;42945;51.718;5.324;2023-01-28T06:28:21;15.45;;;8.15;;
57055;SDS011;42945;51.718;5.324;2023-01-28T06:30:47;14.63;;;7.65;;
57055;SDS011;42945;51.718;5.324;2023-01-28T06:33:13;16.85;;;8.35;;
57055;SDS011;42945;51.718;5.324;2023-01-28T06:35:39;15.98;;;8.15;;
57055;SDS011;42945;51.718;5.324;2023-01-28T06:38:04;20.42;;;9.88;;
57055;SDS011;42945;51.718;5.324;2023-01-28T06:40:29;23.75;;;8.52;;
57055;SDS011;42945;51.718;5.324;2023-01-28T06:42:55;14.93;;;8.25;;
57055;SDS011;42945;51.718;5.324;2023-01-28T06:45:20;13.50;;;7.72;;
57055;SDS011;42945;51.718;5.324;2023-01-28T06:47:45;16.52;;;8.10;;
57055;SDS011;42945;51.718;5.324;2023-01-28T06:50:10;16.05;;;7.82;;
57055;SDS011;42945;51.718;5.324;2023-01-28T06:52:36;16.70;;;8.93;;
57055;SDS011;42945;51.718;5.324;2023-01-28T06:55:01;16.20;;;8.38;;
57055;SDS011;42945;51.718;5.324;2023-01-28T06:57:27;16.20;;;8.77;;
57055;SDS011;42945;51.718;5.324;2023-01-28T06:59:52;15.43;;;8.57;;
57055;SDS011;42945;51.718;5.324;2023-01-28T07:02:17;16.42;;;8.90;;
57055;SDS011;42945;51.718;5.324;2023-01-28T07:04:42;15.13;;;7.90;;
57055;SDS011;42945;51.718;5.324;2023-01-28T07:07:08;16.83;;;8.40;;
57055;SDS011;42945;51.718;5.324;2023-01-28T07:09:33;15.38;;;8.20;;
57055;SDS011;42945;51.718;5.324;2023-01-28T07:11:58;18.38;;;9.90;;
57055;SDS011;42945;51.718;5.324;2023-01-28T07:14:24;18.48;;;9.88;;
57055;SDS011;42945;51.718;5.324;2023-01-28T07:16:49;17.45;;;9.25;;
57055;SDS011;42945;51.718;5.324;2023-01-28T07:19:14;17.13;;;8.15;;
57055;SDS011;42945;51.718;5.324;2023-01-28T07:21:40;15.18;;;8.00;;
57055;SDS011;42945;51.718;5.324;2023-01-28T07:24:05;16.00;;;8.45;;
57055;SDS011;42945;51.718;5.324;2023-01-28T07:26:30;18.13;;;8.82;;
57055;SDS011;42945;51.718;5.324;2023-01-28T07:28:56;15.60;;;7.53;;
57055;SDS011;42945;51.718;5.324;2023-01-28T07:31:21;15.45;;;8.27;;
57055;SDS011;42945;51.718;5.324;2023-01-28T07:33:47;16.35;;;8.75;;
57055;SDS011;42945;51.718;5.324;2023-01-28T07:36:12;15.73;;;7.75;;
57055;SDS011;42945;51.718;5.324;2023-01-28T07:38:37;17.48;;;9.38;;
57055;SDS011;42945;51.718;5.324;2023-01-28T07:41:04;16.35;;;8.98;;
57055;SDS011;42945;51.718;5.324;2023-01-28T07:43:29;15.90;;;8.43;;
57055;SDS011;42945;51.718;5.324;2023-01-28T07:45:58;16.50;;;8.75;;
57055;SDS011;42945;51.718;5.324;2023-01-28T07:48:25;16.80;;;8.65;;
57055;SDS011;42945;51.718;5.324;2023-01-28T07:50:50;16.23;;;9.25;;
57055;SDS011;42945;51.718;5.324;2023-01-28T07:53:16;17.30;;;8.38;;
57055;SDS011;42945;51.718;5.324;2023-01-28T07:55:41;16.45;;;8.52;;
57055;SDS011;42945;51.718;5.324;2023-01-28T07:58:07;18.23;;;8.23;;
57055;SDS011;42945;51.718;5.324;2023-01-28T08:00:35;16.52;;;9.25;;
57055;SDS011;42945;51.718;5.324;2023-01-28T08:03:02;17.42;;;8.88;;
57055;SDS011;42945;51.718;5.324;2023-01-28T08:05:37;15.43;;;8.55;;
57055;SDS011;42945;51.718;5.324;2023-01-28T08:08:05;15.73;;;8.90;;
57055;SDS011;42945;51.718;5.324;2023-01-28T08:10:32;15.57;;;8.55;;
57055;SDS011;42945;51.718;5.324;2023-01-28T08:12:57;14.60;;;8.43;;
57055;SDS011;42945;51.718;5.324;2023-01-28T08:15:23;17.35;;;9.07;;
57055;SDS011;42945;51.718;5.324;2023-01-28T08:17:49;16.88;;;8.35;;
57055;SDS011;42945;51.718;5.324;2023-01-28T08:20:17;17.55;;;8.85;;
57055;SDS011;42945;51.718;5.324;2023-01-28T08:22:43;15.45;;;8.48;;
57055;SDS011;42945;51.718;5.324;2023-01-28T08:25:08;13.95;;;8.10;;
57055;SDS011;42945;51.718;5.324;2023-01-28T08:27:33;15.43;;;8.02;;
57055;SDS011;42945;51.718;5.324;2023-01-28T08:29:59;14.15;;;7.90;;
57055;SDS011;42945;51.718;5.324;2023-01-28T08:32:24;15.65;;;8.70;;
57055;SDS011;42945;51.718;5.324;2023-01-28T08:34:49;13.95;;;7.70;;
57055;SDS011;42945;51.718;5.324;2023-01-28T08:37:15;14.55;;;8.50;;
57055;SDS011;42945;51.718;5.324;2023-01-28T08:39:40;16.05;;;8.57;;
57055;SDS011;42945;51.718;5.324;2023-01-28T08:42:06;14.45;;;7.93;;
57055;SDS011;42945;51.718;5.324;2023-01-28T08:44:31;12.30;;;6.80;;
57055;SDS011;42945;51.718;5.324;2023-01-28T08:46:57;16.27;;;7.63;;
57055;SDS011;42945;51.718;5.324;2023-01-28T08:49:22;13.27;;;7.55;;
57055;SDS011;42945;51.718;5.324;2023-01-28T08:51:48;15.32;;;8.18;;
57055;SDS011;42945;51.718;5.324;2023-01-28T08:54:13;12.00;;;6.88;;
57055;SDS011;42945;51.718;5.324;2023-01-28T08:56:38;12.35;;;7.38;;
57055;SDS011;42945;51.718;5.324;2023-01-28T08:59:06;13.38;;;7.50;;
57055;SDS011;42945;51.718;5.324;2023-01-28T09:01:32;13.05;;;7.38;;
57055;SDS011;42945;51.718;5.324;2023-01-28T09:03:58;14.45;;;7.57;;
57055;SDS011;42945;51.718;5.324;2023-01-28T09:06:23;15.32;;;7.47;;
57055;SDS011;42945;51.718;5.324;2023-01-28T09:08:48;14.93;;;8.15;;
57055;SDS011;42945;51.718;5.324;2023-01-28T09:11:15;15.00;;;8.07;;
57055;SDS011;42945;51.718;5.324;2023-01-28T09:13:40;15.10;;;7.50;;
57055;SDS011;42945;51.718;5.324;2023-01-28T09:16:06;13.82;;;7.57;;
57055;SDS011;42945;51.718;5.324;2023-01-28T09:18:32;14.43;;;8.18;;
57055;SDS011;42945;51.718;5.324;2023-01-28T09:20:57;13.55;;;8.15;;
57055;SDS011;42945;51.718;5.324;2023-01-28T09:23:22;13.80;;;6.85;;
57055;SDS011;42945;51.718;5.324;2023-01-28T09:25:48;13.10;;;7.10;;
57055;SDS011;42945;51.718;5.324;2023-01-28T09:28:13;14.18;;;7.70;;
57055;SDS011;42945;51.718;5.324;2023-01-28T09:30:38;19.63;;;9.45;;
57055;SDS011;42945;51.718;5.324;2023-01-28T09:33:04;14.27;;;6.93;;
57055;SDS011;42945;51.718;5.324;2023-01-28T09:35:31;16.77;;;8.13;;
57055;SDS011;42945;51.718;5.324;2023-01-28T09:37:57;13.00;;;5.95;;
57055;SDS011;42945;51.718;5.324;2023-01-28T09:40:34;14.10;;;7.35;;
57055;SDS011;42945;51.718;5.324;2023-01-28T09:46:18;13.45;;;5.13;;
57055;SDS011;42945;51.718;5.324;2023-01-28T09:48:45;13.50;;;6.95;;
57055;SDS011;42945;51.718;5.324;2023-01-28T09:52:00;13.15;;;6.95;;
57055;SDS011;42945;51.718;5.324;2023-01-28T09:54:06;14.73;;;7.78;;
57055;SDS011;42945;51.718;5.324;2023-01-28T09:56:44;15.73;;;7.78;;
57055;SDS011;42945;51.718;5.324;2023-01-28T09:59:16;14.48;;;7.35;;
57055;SDS011;42945;51.718;5.324;2023-01-28T10:01:49;15.43;;;7.45;;
57055;SDS011;42945;51.718;5.324;2023-01-28T10:04:29;16.83;;;7.63;;
57055;SDS011;42945;51.718;5.324;2023-01-28T10:07:21;12.25;;;6.63;;
57055;SDS011;42945;51.718;5.324;2023-01-28T10:18:09;13.82;;;6.55;;
57055;SDS011;42945;51.718;5.324;2023-01-28T10:21:01;17.20;;;7.95;;
57055;SDS011;42945;51.718;5.324;2023-01-28T10:23:33;15.63;;;8.05;;
57055;SDS011;42945;51.718;5.324;2023-01-28T10:26:10;12.88;;;7.15;;
57055;SDS011;42945;51.718;5.324;2023-01-28T10:28:44;13.40;;;6.82;;
57055;SDS011;42945;51.718;5.324;2023-01-28T10:31:14;12.48;;;6.47;;
57055;SDS011;42945;51.718;5.324;2023-01-28T10:33:39;9.52;;;5.20;;
57055;SDS011;42945;51.718;5.324;2023-01-28T10:36:05;11.40;;;4.95;;
57055;SDS011;42945;51.718;5.324;2023-01-28T10:38:32;10.70;;;5.32;;
57055;SDS011;42945;51.718;5.324;2023-01-28T10:41:02;11.32;;;5.93;;
57055;SDS011;42945;51.718;5.324;2023-01-28T10:43:29;9.90;;;4.55;;
57055;SDS011;42945;51.718;5.324;2023-01-28T10:46:16;8.43;;;5.10;;
57055;SDS011;42945;51.718;5.324;2023-01-28T10:48:46;7.70;;;4.53;;
57055;SDS011;42945;51.718;5.324;2023-01-28T10:51:13;10.60;;;4.47;;
57055;SDS011;42945;51.718;5.324;2023-01-28T10:53:43;8.75;;;4.85;;
57055;SDS011;42945;51.718;5.324;2023-01-28T10:56:14;10.98;;;5.15;;
57055;SDS011;42945;51.718;5.324;2023-01-28T10:58:59;11.27;;;5.63;;
57055;SDS011;42945;51.718;5.324;2023-01-28T11:01:46;8.82;;;4.63;;
57055;SDS011;42945;51.718;5.324;2023-01-28T11:04:25;10.48;;;5.10;;
57055;SDS011;42945;51.718;5.324;2023-01-28T11:09:26;8.23;;;3.78;;
57055;SDS011;42945;51.718;5.324;2023-01-28T11:12:10;9.13;;;5.10;;
57055;SDS011;42945;51.718;5.324;2023-01-28T11:14:36;10.55;;;4.72;;
57055;SDS011;42945;51.718;5.324;2023-01-28T11:17:01;9.55;;;4.88;;
57055;SDS011;42945;51.718;5.324;2023-01-28T11:19:28;10.13;;;5.00;;
57055;SDS011;42945;51.718;5.324;2023-01-28T11:21:58;9.93;;;4.97;;
57055;SDS011;42945;51.718;5.324;2023-01-28T11:24:27;9.02;;;4.55;;
57055;SDS011;42945;51.718;5.324;2023-01-28T11:26:56;7.47;;;3.87;;
57055;SDS011;42945;51.718;5.324;2023-01-28T11:29:24;8.98;;;4.60;;
57055;SDS011;42945;51.718;5.324;2023-01-28T11:31:54;8.75;;;4.82;;
57055;SDS011;42945;51.718;5.324;2023-01-28T11:34:20;9.82;;;4.80;;
57055;SDS011;42945;51.718;5.324;2023-01-28T11:36:51;9.68;;;4.20;;
57055;SDS011;42945;51.718;5.324;2023-01-28T11:39:19;7.82;;;3.83;;
57055;SDS011;42945;51.718;5.324;2023-01-28T11:41:51;9.38;;;4.45;;
57055;SDS011;42945;51.718;5.324;2023-01-28T11:46:52;9.90;;;4.78;;
57055;SDS011;42945;51.718;5.324;2023-01-28T12:06:29;9.10;;;4.88;;
57055;SDS011;42945;51.718;5.324;2023-01-28T12:09:16;8.60;;;4.55;;
57055;SDS011;42945;51.718;5.324;2023-01-28T12:14:52;10.38;;;4.45;;
57055;SDS011;42945;51.718;5.324;2023-01-28T12:29:16;11.48;;;5.60;;
57055;SDS011;42945;51.718;5.324;2023-01-28T12:32:04;11.45;;;5.70;;
57055;SDS011;42945;51.718;5.324;2023-01-28T12:40:31;9.00;;;4.60;;
57055;SDS011;42945;51.718;5.324;2023-01-28T12:49:28;9.23;;;5.00;;
57055;SDS011;42945;51.718;5.324;2023-01-28T13:00:24;10.57;;;5.07;;
57055;SDS011;42945;51.718;5.324;2023-01-28T13:02:58;12.63;;;5.43;;
57055;SDS011;42945;51.718;5.324;2023-01-28T13:05:44;10.63;;;5.60;;
57055;SDS011;42945;51.718;5.324;2023-01-28T13:08:19;15.95;;;6.00;;
57055;SDS011;42945;51.718;5.324;2023-01-28T13:10:46;11.02;;;5.95;;
57055;SDS011;42945;51.718;5.324;2023-01-28T13:13:14;9.98;;;5.25;;
57055;SDS011;42945;51.718;5.324;2023-01-28T13:15:42;12.65;;;5.28;;
57055;SDS011;42945;51.718;5.324;2023-01-28T13:18:29;10.55;;;5.50;;
57055;SDS011;42945;51.718;5.324;2023-01-28T13:20:57;11.80;;;6.15;;
57055;SDS011;42945;51.718;5.324;2023-01-28T13:25:51;11.38;;;6.10;;
57055;SDS011;42945;51.718;5.324;2023-01-28T13:28:29;10.48;;;5.32;;
57055;SDS011;42945;51.718;5.324;2023-01-28T13:31:05;11.70;;;5.95;;
57055;SDS011;42945;51.718;5.324;2023-01-28T13:33:39;11.32;;;6.10;;
57055;SDS011;42945;51.718;5.324;2023-01-28T13:38:31;14.25;;;6.47;;
57055;SDS011;42945;51.718;5.324;2023-01-28T13:40:58;11.20;;;6.30;;
57055;SDS011;42945;51.718;5.324;2023-01-28T13:45:57;12.57;;;5.57;;
57055;SDS011;42945;51.718;5.324;2023-01-28T13:57:22;9.48;;;5.00;;
57055;SDS011;42945;51.718;5.324;2023-01-28T14:06:00;12.70;;;5.40;;
57055;SDS011;42945;51.718;5.324;2023-01-28T14:14:11;11.77;;;5.78;;
57055;SDS011;42945;51.718;5.324;2023-01-28T14:19:38;9.57;;;5.28;;
57055;SDS011;42945;51.718;5.324;2023-01-28T14:22:17;13.30;;;5.45;;
57055;SDS011;42945;51.718;5.324;2023-01-28T14:24:45;10.27;;;5.22;;
57055;SDS011;42945;51.718;5.324;2023-01-28T14:32:33;9.23;;;4.60;;
57055;SDS011;42945;51.718;5.324;2023-01-28T14:35:04;9.20;;;4.88;;
57055;SDS011;42945;51.718;5.324;2023-01-28T14:37:31;9.15;;;5.00;;
57055;SDS011;42945;51.718;5.324;2023-01-28T14:39:58;9.80;;;4.93;;
57055;SDS011;42945;51.718;5.324;2023-01-28T14:42:29;8.60;;;4.55;;
57055;SDS011;42945;51.718;5.324;2023-01-28T14:50:48;11.60;;;4.68;;
57055;SDS011;42945;51.718;5.324;2023-01-28T14:58:44;9.07;;;4.95;;
57055;SDS011;42945;51.718;5.324;2023-01-28T15:01:23;10.38;;;5.05;;
57055;SDS011;42945;51.718;5.324;2023-01-28T15:03:51;9.68;;;5.25;;
57055;SDS011;42945;51.718;5.324;2023-01-28T15:06:18;9.25;;;4.63;;
57055;SDS011;42945;51.718;5.324;2023-01-28T15:08:51;12.20;;;5.15;;
57055;SDS011;42945;51.718;5.324;2023-01-28T15:11:21;11.77;;;5.05;;
57055;SDS011;42945;51.718;5.324;2023-01-28T15:13:50;8.07;;;4.55;;
57055;SDS011;42945;51.718;5.324;2023-01-28T15:16:20;9.57;;;4.80;;
57055;SDS011;42945;51.718;5.324;2023-01-28T15:18:48;8.23;;;4.72;;
57055;SDS011;42945;51.718;5.324;2023-01-28T15:21:20;10.07;;;5.32;;
57055;SDS011;42945;51.718;5.324;2023-01-28T15:23:51;8.45;;;4.72;;
57055;SDS011;42945;51.718;5.324;2023-01-28T15:26:24;10.75;;;5.35;;
57055;SDS011;42945;51.718;5.324;2023-01-28T15:28:52;9.43;;;4.93;;
57055;SDS011;42945;51.718;5.324;2023-01-28T15:31:19;11.18;;;4.85;;
57055;SDS011;42945;51.718;5.324;2023-01-28T15:34:01;10.20;;;4.90;;
57055;SDS011;42945;51.718;5.324;2023-01-28T15:36:28;8.88;;;4.88;;
57055;SDS011;42945;51.718;5.324;2023-01-28T15:38:55;25.75;;;11.52;;
57055;SDS011;42945;51.718;5.324;2023-01-28T15:41:32;10.43;;;5.72;;
57055;SDS011;42945;51.718;5.324;2023-01-28T15:44:03;10.18;;;5.00;;
57055;SDS011;42945;51.718;5.324;2023-01-28T15:46:28;10.40;;;5.10;;
57055;SDS011;42945;51.718;5.324;2023-01-28T15:48:58;10.90;;;5.10;;
57055;SDS011;42945;51.718;5.324;2023-01-28T15:51:29;11.40;;;5.50;;
57055;SDS011;42945;51.718;5.324;2023-01-28T15:54:04;12.13;;;5.87;;
57055;SDS011;42945;51.718;5.324;2023-01-28T15:56:33;11.93;;;5.07;;
57055;SDS011;42945;51.718;5.324;2023-01-28T16:01:42;11.10;;;5.85;;
57055;SDS011;42945;51.718;5.324;2023-01-28T16:04:24;10.82;;;5.40;;
57055;SDS011;42945;51.718;5.324;2023-01-28T16:06:54;12.23;;;5.72;;
57055;SDS011;42945;51.718;5.324;2023-01-28T16:09:29;15.60;;;7.22;;
57055;SDS011;42945;51.718;5.324;2023-01-28T16:12:04;16.23;;;7.45;;
57055;SDS011;42945;51.718;5.324;2023-01-28T16:14:33;41.88;;;16.45;;
57055;SDS011;42945;51.718;5.324;2023-01-28T16:17:01;25.35;;;10.25;;
57055;SDS011;42945;51.718;5.324;2023-01-28T16:22:02;14.32;;;7.40;;
57055;SDS011;42945;51.718;5.324;2023-01-28T16:24:29;16.00;;;7.38;;
57055;SDS011;42945;51.718;5.324;2023-01-28T16:29:27;14.90;;;6.80;;
57055;SDS011;42945;51.718;5.324;2023-01-28T16:31:53;13.35;;;6.65;;
57055;SDS011;42945;51.718;5.324;2023-01-28T16:34:19;15.32;;;7.35;;
57055;SDS011;42945;51.718;5.324;2023-01-28T16:36:44;12.13;;;6.45;;
57055;SDS011;42945;51.718;5.324;2023-01-28T16:39:10;17.25;;;8.57;;
57055;SDS011;42945;51.718;5.324;2023-01-28T16:41:39;18.75;;;7.18;;
57055;SDS011;42945;51.718;5.324;2023-01-28T16:44:11;15.90;;;6.90;;
57055;SDS011;42945;51.718;5.324;2023-01-28T16:46:37;14.82;;;6.90;;
57055;SDS011;42945;51.718;5.324;2023-01-28T16:49:03;14.18;;;7.25;;
57055;SDS011;42945;51.718;5.324;2023-01-28T16:51:29;14.55;;;7.32;;
57055;SDS011;42945;51.718;5.324;2023-01-28T16:53:55;17.85;;;7.30;;
57055;SDS011;42945;51.718;5.324;2023-01-28T16:56:22;13.27;;;6.68;;
57055;SDS011;42945;51.718;5.324;2023-01-28T16:58:52;14.13;;;7.10;;
57055;SDS011;42945;51.718;5.324;2023-01-28T17:01:18;14.57;;;7.55;;
57055;SDS011;42945;51.718;5.324;2023-01-28T17:03:43;12.38;;;7.20;;
57055;SDS011;42945;51.718;5.324;2023-01-28T17:06:10;14.73;;;7.00;;
57055;SDS011;42945;51.718;5.324;2023-01-28T17:08:40;15.27;;;7.40;;
57055;SDS011;42945;51.718;5.324;2023-01-28T17:11:06;19.55;;;9.18;;
57055;SDS011;42945;51.718;5.324;2023-01-28T17:13:31;16.88;;;7.80;;
57055;SDS011;42945;51.718;5.324;2023-01-28T17:15:58;13.98;;;7.93;;
57055;SDS011;42945;51.718;5.324;2023-01-28T17:18:26;15.88;;;7.47;;
57055;SDS011;42945;51.718;5.324;2023-01-28T17:20:51;14.32;;;7.55;;
57055;SDS011;42945;51.718;5.324;2023-01-28T17:23:16;15.90;;;8.20;;